sensor_id;sensor_type;location;lat;lon;timestamp;P1;durP1;ratioP1;P2;durP2;ratioP2
27225;SDS011;14732;51.074;3.788;2023-02-15T00:01:40;73.90;;;38.70;;
27225;SDS011;14732;51.074;3.788;2023-02-15T00:04:07;92.75;;;44.72;;
27225;SDS011;14732;51.074;3.788;2023-02-15T00:06:34;86.45;;;44.15;;
27225;SDS011;14732;51.074;3.788;2023-02-15T00:09:00;87.15;;;43.42;;
27225;SDS011;14732;51.074;3.788;2023-02-15T00:11:27;88.32;;;43.15;;
27225;SDS011;14732;51.074;3.788;2023-02-15T00:14:22;82.72;;;39.63;;
27225;SDS011;14732;51.074;3.788;2023-02-15T00:16:49;79.63;;;39.83;;
27225;SDS011;14732;51.074;3.788;2023-02-15T00:19:17;77.05;;;39.70;;
27225;SDS011;14732;51.074;3.788;2023-02-15T00:21:43;84.30;;;41.80;;
27225;SDS011;14732;51.074;3.788;2023-02-15T00:24:10;84.20;;;40.92;;
27225;SDS011;14732;51.074;3.788;2023-02-15T00:26:37;83.32;;;41.15;;
27225;SDS011;14732;51.074;3.788;2023-02-15T00:29:04;73.88;;;37.97;;
27225;SDS011;14732;51.074;3.788;2023-02-15T00:31:31;87.90;;;42.25;;
27225;SDS011;14732;51.074;3.788;2023-02-15T00:34:01;88.63;;;44.58;;
27225;SDS011;14732;51.074;3.788;2023-02-15T00:36:31;92.65;;;47.78;;
27225;SDS011;14732;51.074;3.788;2023-02-15T00:38:57;87.65;;;44.35;;
27225;SDS011;14732;51.074;3.788;2023-02-15T00:41:23;85.95;;;42.92;;
27225;SDS011;14732;51.074;3.788;2023-02-15T00:43:49;83.55;;;43.80;;
27225;SDS011;14732;51.074;3.788;2023-02-15T00:46:15;89.43;;;44.17;;
27225;SDS011;14732;51.074;3.788;2023-02-15T00:48:40;84.43;;;44.35;;
27225;SDS011;14732;51.074;3.788;2023-02-15T00:51:06;83.93;;;44.65;;
27225;SDS011;14732;51.074;3.788;2023-02-15T00:53:32;85.50;;;41.85;;
27225;SDS011;14732;51.074;3.788;2023-02-15T00:55:58;82.60;;;42.35;;
27225;SDS011;14732;51.074;3.788;2023-02-15T00:58:24;79.45;;;41.25;;
27225;SDS011;14732;51.074;3.788;2023-02-15T01:00:50;85.75;;;42.67;;
27225;SDS011;14732;51.074;3.788;2023-02-15T01:03:17;87.13;;;43.35;;
27225;SDS011;14732;51.074;3.788;2023-02-15T01:05:44;86.50;;;44.55;;
27225;SDS011;14732;51.074;3.788;2023-02-15T01:08:11;74.65;;;38.90;;
27225;SDS011;14732;51.074;3.788;2023-02-15T01:10:37;86.30;;;41.10;;
27225;SDS011;14732;51.074;3.788;2023-02-15T01:13:03;79.22;;;40.08;;
27225;SDS011;14732;51.074;3.788;2023-02-15T01:15:29;77.93;;;40.22;;
27225;SDS011;14732;51.074;3.788;2023-02-15T01:17:55;80.90;;;41.03;;
27225;SDS011;14732;51.074;3.788;2023-02-15T01:20:24;85.43;;;42.80;;
27225;SDS011;14732;51.074;3.788;2023-02-15T01:22:52;80.97;;;41.97;;
27225;SDS011;14732;51.074;3.788;2023-02-15T01:25:19;84.22;;;42.40;;
27225;SDS011;14732;51.074;3.788;2023-02-15T01:27:46;96.32;;;46.63;;
27225;SDS011;14732;51.074;3.788;2023-02-15T01:30:12;84.93;;;43.28;;
27225;SDS011;14732;51.074;3.788;2023-02-15T01:32:39;84.15;;;42.45;;
27225;SDS011;14732;51.074;3.788;2023-02-15T01:35:05;86.93;;;43.20;;
27225;SDS011;14732;51.074;3.788;2023-02-15T01:37:31;79.80;;;41.05;;
27225;SDS011;14732;51.074;3.788;2023-02-15T01:39:57;85.07;;;43.22;;
27225;SDS011;14732;51.074;3.788;2023-02-15T01:42:25;80.10;;;42.97;;
27225;SDS011;14732;51.074;3.788;2023-02-15T01:47:38;82.10;;;41.95;;
27225;SDS011;14732;51.074;3.788;2023-02-15T01:52:41;95.25;;;44.72;;
27225;SDS011;14732;51.074;3.788;2023-02-15T01:55:13;98.78;;;44.10;;
27225;SDS011;14732;51.074;3.788;2023-02-15T01:57:40;108.53;;;48.65;;
27225;SDS011;14732;51.074;3.788;2023-02-15T02:00:07;97.22;;;46.22;;
27225;SDS011;14732;51.074;3.788;2023-02-15T02:02:33;95.50;;;45.63;;
27225;SDS011;14732;51.074;3.788;2023-02-15T02:05:01;94.13;;;45.15;;
27225;SDS011;14732;51.074;3.788;2023-02-15T02:07:32;88.75;;;42.95;;
27225;SDS011;14732;51.074;3.788;2023-02-15T02:10:04;82.22;;;39.70;;
27225;SDS011;14732;51.074;3.788;2023-02-15T02:12:32;80.53;;;39.30;;
27225;SDS011;14732;51.074;3.788;2023-02-15T02:14:58;99.28;;;41.28;;
27225;SDS011;14732;51.074;3.788;2023-02-15T02:34:07;112.95;;;47.97;;
27225;SDS011;14732;51.074;3.788;2023-02-15T02:37:03;92.38;;;45.08;;
27225;SDS011;14732;51.074;3.788;2023-02-15T02:40:05;105.32;;;46.17;;
27225;SDS011;14732;51.074;3.788;2023-02-15T02:42:37;78.97;;;43.40;;
27225;SDS011;14732;51.074;3.788;2023-02-15T02:45:08;85.75;;;45.63;;
27225;SDS011;14732;51.074;3.788;2023-02-15T02:47:59;88.03;;;45.40;;
27225;SDS011;14732;51.074;3.788;2023-02-15T02:50:31;85.93;;;44.47;;
27225;SDS011;14732;51.074;3.788;2023-02-15T02:52:58;81.38;;;43.70;;
27225;SDS011;14732;51.074;3.788;2023-02-15T02:55:25;87.03;;;44.70;;
27225;SDS011;14732;51.074;3.788;2023-02-15T03:00:55;100.15;;;47.83;;
27225;SDS011;14732;51.074;3.788;2023-02-15T03:06:02;227.95;;;51.40;;
27225;SDS011;14732;51.074;3.788;2023-02-15T03:08:42;104.25;;;49.08;;
27225;SDS011;14732;51.074;3.788;2023-02-15T03:11:12;104.55;;;49.70;;
27225;SDS011;14732;51.074;3.788;2023-02-15T03:13:38;110.13;;;50.97;;
27225;SDS011;14732;51.074;3.788;2023-02-15T03:16:04;110.03;;;50.53;;
27225;SDS011;14732;51.074;3.788;2023-02-15T03:18:54;102.85;;;45.45;;
27225;SDS011;14732;51.074;3.788;2023-02-15T03:21:59;91.88;;;44.80;;
27225;SDS011;14732;51.074;3.788;2023-02-15T03:24:38;92.07;;;46.53;;
27225;SDS011;14732;51.074;3.788;2023-02-15T03:27:12;83.63;;;44.63;;
27225;SDS011;14732;51.074;3.788;2023-02-15T03:29:42;94.68;;;47.55;;
27225;SDS011;14732;51.074;3.788;2023-02-15T03:32:13;93.32;;;47.15;;
27225;SDS011;14732;51.074;3.788;2023-02-15T03:34:40;93.15;;;46.95;;
27225;SDS011;14732;51.074;3.788;2023-02-15T03:37:11;85.00;;;45.75;;
27225;SDS011;14732;51.074;3.788;2023-02-15T03:45:08;86.60;;;46.03;;
27225;SDS011;14732;51.074;3.788;2023-02-15T03:47:41;80.75;;;44.05;;
27225;SDS011;14732;51.074;3.788;2023-02-15T03:53:02;81.28;;;43.38;;
27225;SDS011;14732;51.074;3.788;2023-02-15T03:55:30;75.82;;;42.60;;
27225;SDS011;14732;51.074;3.788;2023-02-15T03:57:56;79.57;;;43.35;;
27225;SDS011;14732;51.074;3.788;2023-02-15T04:00:40;75.65;;;42.03;;
27225;SDS011;14732;51.074;3.788;2023-02-15T04:03:39;73.60;;;41.08;;
27225;SDS011;14732;51.074;3.788;2023-02-15T04:06:08;74.40;;;41.92;;
27225;SDS011;14732;51.074;3.788;2023-02-15T04:08:34;79.80;;;42.85;;
27225;SDS011;14732;51.074;3.788;2023-02-15T04:11:18;79.18;;;43.45;;
27225;SDS011;14732;51.074;3.788;2023-02-15T04:13:44;75.97;;;41.83;;
27225;SDS011;14732;51.074;3.788;2023-02-15T04:16:10;77.22;;;42.30;;
27225;SDS011;14732;51.074;3.788;2023-02-15T04:18:37;78.57;;;41.50;;
27225;SDS011;14732;51.074;3.788;2023-02-15T04:21:26;78.45;;;41.25;;
27225;SDS011;14732;51.074;3.788;2023-02-15T04:24:12;68.93;;;39.17;;
27225;SDS011;14732;51.074;3.788;2023-02-15T04:26:57;78.85;;;41.78;;
27225;SDS011;14732;51.074;3.788;2023-02-15T04:29:24;76.22;;;41.30;;
27225;SDS011;14732;51.074;3.788;2023-02-15T04:31:51;73.82;;;40.05;;
27225;SDS011;14732;51.074;3.788;2023-02-15T04:34:17;67.43;;;38.22;;
27225;SDS011;14732;51.074;3.788;2023-02-15T04:36:43;74.97;;;40.45;;
27225;SDS011;14732;51.074;3.788;2023-02-15T04:39:09;66.90;;;39.00;;
27225;SDS011;14732;51.074;3.788;2023-02-15T04:41:38;69.88;;;38.17;;
27225;SDS011;14732;51.074;3.788;2023-02-15T04:44:04;68.72;;;38.05;;
27225;SDS011;14732;51.074;3.788;2023-02-15T04:46:30;72.35;;;39.95;;
27225;SDS011;14732;51.074;3.788;2023-02-15T04:48:55;69.38;;;38.92;;
27225;SDS011;14732;51.074;3.788;2023-02-15T04:51:21;66.78;;;38.40;;
27225;SDS011;14732;51.074;3.788;2023-02-15T04:53:47;69.70;;;39.63;;
27225;SDS011;14732;51.074;3.788;2023-02-15T04:56:13;79.30;;;41.90;;
27225;SDS011;14732;51.074;3.788;2023-02-15T04:58:39;74.15;;;41.80;;
27225;SDS011;14732;51.074;3.788;2023-02-15T05:01:08;69.43;;;39.90;;
27225;SDS011;14732;51.074;3.788;2023-02-15T05:03:34;77.20;;;40.13;;
27225;SDS011;14732;51.074;3.788;2023-02-15T05:06:00;70.20;;;40.28;;
27225;SDS011;14732;51.074;3.788;2023-02-15T05:08:26;70.57;;;39.28;;
27225;SDS011;14732;51.074;3.788;2023-02-15T05:10:51;78.38;;;41.08;;
27225;SDS011;14732;51.074;3.788;2023-02-15T05:13:17;81.03;;;41.65;;
27225;SDS011;14732;51.074;3.788;2023-02-15T05:15:47;77.72;;;41.55;;
27225;SDS011;14732;51.074;3.788;2023-02-15T05:18:14;78.40;;;41.22;;
27225;SDS011;14732;51.074;3.788;2023-02-15T05:20:40;77.25;;;41.25;;
27225;SDS011;14732;51.074;3.788;2023-02-15T05:23:05;79.32;;;41.97;;
27225;SDS011;14732;51.074;3.788;2023-02-15T05:25:31;79.65;;;41.78;;
27225;SDS011;14732;51.074;3.788;2023-02-15T05:28:15;74.47;;;40.60;;
27225;SDS011;14732;51.074;3.788;2023-02-15T05:30:47;79.03;;;41.47;;
27225;SDS011;14732;51.074;3.788;2023-02-15T05:33:24;75.30;;;41.97;;
27225;SDS011;14732;51.074;3.788;2023-02-15T05:35:49;74.43;;;40.45;;
27225;SDS011;14732;51.074;3.788;2023-02-15T05:38:16;86.03;;;43.42;;
27225;SDS011;14732;51.074;3.788;2023-02-15T05:40:41;79.32;;;40.88;;
27225;SDS011;14732;51.074;3.788;2023-02-15T05:43:07;78.50;;;40.50;;
27225;SDS011;14732;51.074;3.788;2023-02-15T05:45:33;76.38;;;40.75;;
27225;SDS011;14732;51.074;3.788;2023-02-15T05:47:58;84.30;;;43.55;;
27225;SDS011;14732;51.074;3.788;2023-02-15T05:50:24;79.38;;;42.05;;
27225;SDS011;14732;51.074;3.788;2023-02-15T05:52:51;87.15;;;43.00;;
27225;SDS011;14732;51.074;3.788;2023-02-15T05:55:17;93.22;;;42.85;;
27225;SDS011;14732;51.074;3.788;2023-02-15T05:57:43;81.03;;;42.17;;
27225;SDS011;14732;51.074;3.788;2023-02-15T06:00:09;82.72;;;42.83;;
27225;SDS011;14732;51.074;3.788;2023-02-15T06:02:36;88.05;;;42.72;;
27225;SDS011;14732;51.074;3.788;2023-02-15T06:05:03;77.57;;;40.38;;
27225;SDS011;14732;51.074;3.788;2023-02-15T06:07:29;82.95;;;41.92;;
27225;SDS011;14732;51.074;3.788;2023-02-15T06:09:55;77.07;;;41.60;;
27225;SDS011;14732;51.074;3.788;2023-02-15T06:12:20;82.70;;;42.45;;
27225;SDS011;14732;51.074;3.788;2023-02-15T06:14:46;85.00;;;42.08;;
27225;SDS011;14732;51.074;3.788;2023-02-15T06:17:12;84.32;;;42.97;;
27225;SDS011;14732;51.074;3.788;2023-02-15T06:19:37;89.60;;;41.75;;
27225;SDS011;14732;51.074;3.788;2023-02-15T06:22:03;83.32;;;41.40;;
27225;SDS011;14732;51.074;3.788;2023-02-15T06:24:28;91.50;;;45.72;;
27225;SDS011;14732;51.074;3.788;2023-02-15T06:26:54;82.38;;;41.42;;
27225;SDS011;14732;51.074;3.788;2023-02-15T06:29:20;80.47;;;42.28;;
27225;SDS011;14732;51.074;3.788;2023-02-15T06:31:45;84.97;;;43.03;;
27225;SDS011;14732;51.074;3.788;2023-02-15T06:34:11;82.57;;;42.28;;
27225;SDS011;14732;51.074;3.788;2023-02-15T06:36:37;82.40;;;41.75;;
27225;SDS011;14732;51.074;3.788;2023-02-15T06:39:03;85.90;;;41.35;;
27225;SDS011;14732;51.074;3.788;2023-02-15T06:41:29;84.00;;;41.60;;
27225;SDS011;14732;51.074;3.788;2023-02-15T06:43:55;88.22;;;41.28;;
27225;SDS011;14732;51.074;3.788;2023-02-15T06:46:21;76.25;;;39.95;;
27225;SDS011;14732;51.074;3.788;2023-02-15T06:48:46;85.47;;;42.10;;
27225;SDS011;14732;51.074;3.788;2023-02-15T06:51:12;80.57;;;42.15;;
27225;SDS011;14732;51.074;3.788;2023-02-15T06:53:38;81.10;;;42.25;;
27225;SDS011;14732;51.074;3.788;2023-02-15T06:56:06;83.72;;;42.65;;
27225;SDS011;14732;51.074;3.788;2023-02-15T06:58:34;85.18;;;42.70;;
27225;SDS011;14732;51.074;3.788;2023-02-15T07:01:04;88.20;;;42.28;;
27225;SDS011;14732;51.074;3.788;2023-02-15T07:03:30;81.80;;;41.88;;
27225;SDS011;14732;51.074;3.788;2023-02-15T07:05:57;92.60;;;43.80;;
27225;SDS011;14732;51.074;3.788;2023-02-15T07:08:24;84.13;;;41.88;;
27225;SDS011;14732;51.074;3.788;2023-02-15T07:10:51;82.53;;;42.10;;
27225;SDS011;14732;51.074;3.788;2023-02-15T07:13:17;91.15;;;42.80;;
27225;SDS011;14732;51.074;3.788;2023-02-15T07:15:44;90.55;;;43.15;;
27225;SDS011;14732;51.074;3.788;2023-02-15T07:18:11;88.82;;;45.17;;
27225;SDS011;14732;51.074;3.788;2023-02-15T07:20:37;81.50;;;40.63;;
27225;SDS011;14732;51.074;3.788;2023-02-15T07:23:03;85.82;;;42.58;;
27225;SDS011;14732;51.074;3.788;2023-02-15T07:25:29;79.75;;;40.25;;
27225;SDS011;14732;51.074;3.788;2023-02-15T07:28:00;84.68;;;41.65;;
27225;SDS011;14732;51.074;3.788;2023-02-15T07:30:27;87.80;;;42.22;;
27225;SDS011;14732;51.074;3.788;2023-02-15T07:32:57;97.18;;;42.92;;
27225;SDS011;14732;51.074;3.788;2023-02-15T07:35:55;86.38;;;41.38;;
27225;SDS011;14732;51.074;3.788;2023-02-15T07:38:27;81.32;;;40.45;;
27225;SDS011;14732;51.074;3.788;2023-02-15T07:41:01;89.75;;;41.25;;
27225;SDS011;14732;51.074;3.788;2023-02-15T07:43:29;86.60;;;39.75;;
27225;SDS011;14732;51.074;3.788;2023-02-15T07:46:02;81.80;;;39.55;;
27225;SDS011;14732;51.074;3.788;2023-02-15T07:48:30;79.32;;;39.55;;
27225;SDS011;14732;51.074;3.788;2023-02-15T07:50:59;81.47;;;38.88;;
27225;SDS011;14732;51.074;3.788;2023-02-15T07:53:26;78.55;;;38.83;;
27225;SDS011;14732;51.074;3.788;2023-02-15T07:55:52;73.25;;;36.50;;
27225;SDS011;14732;51.074;3.788;2023-02-15T07:58:18;78.75;;;37.00;;
27225;SDS011;14732;51.074;3.788;2023-02-15T08:00:44;73.57;;;37.70;;
27225;SDS011;14732;51.074;3.788;2023-02-15T08:03:25;76.95;;;37.78;;
27225;SDS011;14732;51.074;3.788;2023-02-15T08:05:54;72.78;;;37.10;;
27225;SDS011;14732;51.074;3.788;2023-02-15T08:08:22;73.45;;;39.45;;
27225;SDS011;14732;51.074;3.788;2023-02-15T08:11:06;68.97;;;36.63;;
27225;SDS011;14732;51.074;3.788;2023-02-15T08:14:00;73.50;;;36.92;;
27225;SDS011;14732;51.074;3.788;2023-02-15T08:16:41;70.68;;;38.03;;
27225;SDS011;14732;51.074;3.788;2023-02-15T08:19:08;64.17;;;36.03;;
27225;SDS011;14732;51.074;3.788;2023-02-15T08:21:42;69.35;;;36.22;;
27225;SDS011;14732;51.074;3.788;2023-02-15T08:24:11;65.22;;;37.25;;
27225;SDS011;14732;51.074;3.788;2023-02-15T08:26:38;69.53;;;36.45;;
27225;SDS011;14732;51.074;3.788;2023-02-15T08:29:04;66.00;;;36.22;;
27225;SDS011;14732;51.074;3.788;2023-02-15T08:31:31;62.92;;;35.95;;
27225;SDS011;14732;51.074;3.788;2023-02-15T08:33:57;60.88;;;35.67;;
27225;SDS011;14732;51.074;3.788;2023-02-15T08:36:25;63.53;;;36.67;;
27225;SDS011;14732;51.074;3.788;2023-02-15T08:38:52;62.00;;;37.03;;
27225;SDS011;14732;51.074;3.788;2023-02-15T08:41:22;63.35;;;36.85;;
27225;SDS011;14732;51.074;3.788;2023-02-15T08:43:51;64.90;;;36.72;;
27225;SDS011;14732;51.074;3.788;2023-02-15T08:46:18;61.28;;;36.72;;
27225;SDS011;14732;51.074;3.788;2023-02-15T08:48:45;62.25;;;36.28;;
27225;SDS011;14732;51.074;3.788;2023-02-15T08:51:15;62.95;;;36.55;;
27225;SDS011;14732;51.074;3.788;2023-02-15T08:53:43;62.72;;;36.55;;
27225;SDS011;14732;51.074;3.788;2023-02-15T08:56:11;59.15;;;36.10;;
27225;SDS011;14732;51.074;3.788;2023-02-15T08:58:37;59.42;;;35.90;;
27225;SDS011;14732;51.074;3.788;2023-02-15T09:01:10;55.33;;;35.00;;
27225;SDS011;14732;51.074;3.788;2023-02-15T09:03:43;55.25;;;35.05;;
27225;SDS011;14732;51.074;3.788;2023-02-15T09:06:09;56.38;;;35.55;;
27225;SDS011;14732;51.074;3.788;2023-02-15T09:08:36;56.47;;;35.53;;
27225;SDS011;14732;51.074;3.788;2023-02-15T09:11:15;56.17;;;36.42;;
27225;SDS011;14732;51.074;3.788;2023-02-15T09:13:51;61.17;;;37.38;;
27225;SDS011;14732;51.074;3.788;2023-02-15T09:16:20;59.67;;;37.13;;
27225;SDS011;14732;51.074;3.788;2023-02-15T09:18:47;57.65;;;36.28;;
27225;SDS011;14732;51.074;3.788;2023-02-15T09:21:14;58.33;;;37.30;;
27225;SDS011;14732;51.074;3.788;2023-02-15T09:23:42;60.50;;;36.85;;
27225;SDS011;14732;51.074;3.788;2023-02-15T09:26:10;54.38;;;34.95;;
27225;SDS011;14732;51.074;3.788;2023-02-15T09:28:37;50.00;;;32.45;;
27225;SDS011;14732;51.074;3.788;2023-02-15T09:31:04;56.30;;;33.60;;
27225;SDS011;14732;51.074;3.788;2023-02-15T09:33:38;54.50;;;34.30;;
27225;SDS011;14732;51.074;3.788;2023-02-15T09:36:12;53.88;;;33.83;;
27225;SDS011;14732;51.074;3.788;2023-02-15T09:38:46;52.47;;;33.22;;
27225;SDS011;14732;51.074;3.788;2023-02-15T10:00:23;51.05;;;29.80;;
27225;SDS011;14732;51.074;3.788;2023-02-15T10:28:16;50.50;;;26.33;;
27225;SDS011;14732;51.074;3.788;2023-02-15T10:33:22;48.83;;;27.17;;
27225;SDS011;14732;51.074;3.788;2023-02-15T10:49:53;51.45;;;27.13;;
27225;SDS011;14732;51.074;3.788;2023-02-15T11:00:57;53.60;;;27.77;;
27225;SDS011;14732;51.074;3.788;2023-02-15T11:04:04;55.33;;;26.77;;
27225;SDS011;14732;51.074;3.788;2023-02-15T11:06:53;49.28;;;25.33;;
27225;SDS011;14732;51.074;3.788;2023-02-15T11:09:24;51.42;;;26.25;;
27225;SDS011;14732;51.074;3.788;2023-02-15T11:11:55;53.47;;;25.80;;
27225;SDS011;14732;51.074;3.788;2023-02-15T11:15:26;50.78;;;27.35;;
27225;SDS011;14732;51.074;3.788;2023-02-15T11:17:50;53.70;;;28.65;;
27225;SDS011;14732;51.074;3.788;2023-02-15T11:23:06;64.93;;;27.02;;
27225;SDS011;14732;51.074;3.788;2023-02-15T11:25:41;50.25;;;28.30;;
27225;SDS011;14732;51.074;3.788;2023-02-15T11:28:22;53.47;;;27.92;;
27225;SDS011;14732;51.074;3.788;2023-02-15T11:31:23;52.05;;;27.30;;
27225;SDS011;14732;51.074;3.788;2023-02-15T11:33:51;55.22;;;27.17;;
27225;SDS011;14732;51.074;3.788;2023-02-15T11:36:25;50.35;;;27.13;;
27225;SDS011;14732;51.074;3.788;2023-02-15T11:38:58;50.95;;;27.83;;
27225;SDS011;14732;51.074;3.788;2023-02-15T11:41:29;51.20;;;26.75;;
27225;SDS011;14732;51.074;3.788;2023-02-15T11:46:32;50.10;;;26.27;;
27225;SDS011;14732;51.074;3.788;2023-02-15T11:48:57;50.70;;;27.17;;
27225;SDS011;14732;51.074;3.788;2023-02-15T11:51:23;50.55;;;26.45;;
27225;SDS011;14732;51.074;3.788;2023-02-15T11:53:52;54.00;;;26.67;;
27225;SDS011;14732;51.074;3.788;2023-02-15T11:56:25;57.70;;;28.10;;
27225;SDS011;14732;51.074;3.788;2023-02-15T11:59:02;54.40;;;28.13;;
27225;SDS011;14732;51.074;3.788;2023-02-15T12:01:40;49.40;;;28.55;;
27225;SDS011;14732;51.074;3.788;2023-02-15T12:04:09;52.85;;;26.80;;
27225;SDS011;14732;51.074;3.788;2023-02-15T12:06:55;51.63;;;27.67;;
27225;SDS011;14732;51.074;3.788;2023-02-15T12:09:48;45.28;;;27.17;;
27225;SDS011;14732;51.074;3.788;2023-02-15T12:12:30;48.95;;;26.52;;
27225;SDS011;14732;51.074;3.788;2023-02-15T12:14:58;52.63;;;26.85;;
27225;SDS011;14732;51.074;3.788;2023-02-15T12:17:48;48.17;;;26.45;;
27225;SDS011;14732;51.074;3.788;2023-02-15T12:22:51;49.35;;;26.27;;
27225;SDS011;14732;51.074;3.788;2023-02-15T12:25:23;52.25;;;28.35;;
27225;SDS011;14732;51.074;3.788;2023-02-15T12:27:54;52.85;;;27.17;;
27225;SDS011;14732;51.074;3.788;2023-02-15T12:33:02;49.13;;;25.92;;
27225;SDS011;14732;51.074;3.788;2023-02-15T12:35:30;50.22;;;27.02;;
27225;SDS011;14732;51.074;3.788;2023-02-15T12:38:03;48.57;;;26.77;;
27225;SDS011;14732;51.074;3.788;2023-02-15T12:40:36;52.67;;;27.15;;
27225;SDS011;14732;51.074;3.788;2023-02-15T12:43:05;51.13;;;27.47;;
27225;SDS011;14732;51.074;3.788;2023-02-15T12:46:06;51.25;;;25.33;;
27225;SDS011;14732;51.074;3.788;2023-02-15T12:48:46;47.83;;;26.25;;
27225;SDS011;14732;51.074;3.788;2023-02-15T12:51:13;52.67;;;27.23;;
27225;SDS011;14732;51.074;3.788;2023-02-15T12:53:40;61.63;;;28.05;;
27225;SDS011;14732;51.074;3.788;2023-02-15T12:56:07;52.58;;;27.17;;
27225;SDS011;14732;51.074;3.788;2023-02-15T12:58:39;50.85;;;28.27;;
27225;SDS011;14732;51.074;3.788;2023-02-15T13:03:55;49.17;;;26.37;;
27225;SDS011;14732;51.074;3.788;2023-02-15T13:06:21;48.35;;;25.33;;
27225;SDS011;14732;51.074;3.788;2023-02-15T13:08:51;51.53;;;27.30;;
27225;SDS011;14732;51.074;3.788;2023-02-15T13:11:25;52.00;;;27.60;;
27225;SDS011;14732;51.074;3.788;2023-02-15T13:13:58;49.50;;;26.33;;
27225;SDS011;14732;51.074;3.788;2023-02-15T13:16:30;52.70;;;26.58;;
27225;SDS011;14732;51.074;3.788;2023-02-15T13:18:56;50.78;;;27.60;;
27225;SDS011;14732;51.074;3.788;2023-02-15T13:21:29;47.05;;;26.67;;
27225;SDS011;14732;51.074;3.788;2023-02-15T13:23:58;52.03;;;27.90;;
27225;SDS011;14732;51.074;3.788;2023-02-15T13:26:30;57.42;;;27.17;;
27225;SDS011;14732;51.074;3.788;2023-02-15T13:28:58;48.47;;;26.02;;
27225;SDS011;14732;51.074;3.788;2023-02-15T13:31:33;44.05;;;25.20;;
27225;SDS011;14732;51.074;3.788;2023-02-15T13:34:07;48.67;;;25.42;;
27225;SDS011;14732;51.074;3.788;2023-02-15T13:36:45;46.33;;;26.10;;
27225;SDS011;14732;51.074;3.788;2023-02-15T13:47:50;51.45;;;27.65;;
27225;SDS011;14732;51.074;3.788;2023-02-15T13:53:33;51.75;;;28.58;;
27225;SDS011;14732;51.074;3.788;2023-02-15T13:59:16;52.45;;;28.90;;
27225;SDS011;14732;51.074;3.788;2023-02-15T14:08:40;48.75;;;26.50;;
27225;SDS011;14732;51.074;3.788;2023-02-15T14:16:58;54.22;;;28.15;;
27225;SDS011;14732;51.074;3.788;2023-02-15T14:19:44;49.42;;;28.15;;
27225;SDS011;14732;51.074;3.788;2023-02-15T14:22:26;56.70;;;27.60;;
27225;SDS011;14732;51.074;3.788;2023-02-15T14:30:31;44.80;;;26.17;;
27225;SDS011;14732;51.074;3.788;2023-02-15T14:33:04;48.90;;;26.25;;
27225;SDS011;14732;51.074;3.788;2023-02-15T14:35:49;53.90;;;29.63;;
27225;SDS011;14732;51.074;3.788;2023-02-15T14:41:28;56.33;;;29.88;;
27225;SDS011;14732;51.074;3.788;2023-02-15T14:43:58;50.40;;;29.33;;
27225;SDS011;14732;51.074;3.788;2023-02-15T14:46:46;53.63;;;28.63;;
27225;SDS011;14732;51.074;3.788;2023-02-15T14:49:23;54.08;;;27.63;;
27225;SDS011;14732;51.074;3.788;2023-02-15T14:51:59;53.92;;;27.05;;
27225;SDS011;14732;51.074;3.788;2023-02-15T14:59:35;50.50;;;27.33;;
27225;SDS011;14732;51.074;3.788;2023-02-15T15:04:38;55.35;;;29.63;;
27225;SDS011;14732;51.074;3.788;2023-02-15T15:09:37;52.58;;;28.45;;
27225;SDS011;14732;51.074;3.788;2023-02-15T15:12:18;46.72;;;26.80;;
27225;SDS011;14732;51.074;3.788;2023-02-15T15:15:04;54.70;;;29.00;;
27225;SDS011;14732;51.074;3.788;2023-02-15T15:19:58;54.10;;;28.77;;
27225;SDS011;14732;51.074;3.788;2023-02-15T15:22:29;53.00;;;27.63;;
27225;SDS011;14732;51.074;3.788;2023-02-15T15:24:59;49.78;;;27.15;;
27225;SDS011;14732;51.074;3.788;2023-02-15T15:27:41;51.63;;;27.60;;
27225;SDS011;14732;51.074;3.788;2023-02-15T15:44:19;53.05;;;28.73;;
27225;SDS011;14732;51.074;3.788;2023-02-15T15:49:42;50.28;;;27.67;;
27225;SDS011;14732;51.074;3.788;2023-02-15T15:52:15;49.13;;;28.00;;
27225;SDS011;14732;51.074;3.788;2023-02-15T15:54:50;52.95;;;28.08;;
27225;SDS011;14732;51.074;3.788;2023-02-15T15:57:23;53.45;;;27.00;;
27225;SDS011;14732;51.074;3.788;2023-02-15T15:59:51;50.08;;;27.35;;
27225;SDS011;14732;51.074;3.788;2023-02-15T16:02:16;48.28;;;27.20;;
27225;SDS011;14732;51.074;3.788;2023-02-15T16:04:43;51.78;;;26.48;;
27225;SDS011;14732;51.074;3.788;2023-02-15T16:12:20;45.95;;;27.27;;
27225;SDS011;14732;51.074;3.788;2023-02-15T16:14:46;54.20;;;27.75;;
27225;SDS011;14732;51.074;3.788;2023-02-15T16:17:19;46.72;;;28.02;;
27225;SDS011;14732;51.074;3.788;2023-02-15T16:19:47;50.22;;;27.77;;
27225;SDS011;14732;51.074;3.788;2023-02-15T16:22:24;50.17;;;28.20;;
27225;SDS011;14732;51.074;3.788;2023-02-15T16:30:19;57.95;;;28.67;;
27225;SDS011;14732;51.074;3.788;2023-02-15T16:32:45;55.78;;;28.85;;
27225;SDS011;14732;51.074;3.788;2023-02-15T16:35:15;53.60;;;28.48;;
27225;SDS011;14732;51.074;3.788;2023-02-15T16:37:43;51.10;;;27.98;;
27225;SDS011;14732;51.074;3.788;2023-02-15T16:40:14;51.28;;;28.27;;
27225;SDS011;14732;51.074;3.788;2023-02-15T16:43:03;54.80;;;29.88;;
27225;SDS011;14732;51.074;3.788;2023-02-15T16:45:34;55.42;;;29.40;;
27225;SDS011;14732;51.074;3.788;2023-02-15T16:48:04;56.70;;;28.95;;
27225;SDS011;14732;51.074;3.788;2023-02-15T16:50:36;52.05;;;28.20;;
27225;SDS011;14732;51.074;3.788;2023-02-15T16:53:03;53.05;;;28.17;;
27225;SDS011;14732;51.074;3.788;2023-02-15T16:55:41;58.55;;;27.83;;
27225;SDS011;14732;51.074;3.788;2023-02-15T16:58:11;48.50;;;27.27;;
27225;SDS011;14732;51.074;3.788;2023-02-15T17:00:41;54.50;;;29.13;;
27225;SDS011;14732;51.074;3.788;2023-02-15T17:05:45;52.55;;;28.10;;
27225;SDS011;14732;51.074;3.788;2023-02-15T17:11:12;55.47;;;29.08;;
27225;SDS011;14732;51.074;3.788;2023-02-15T17:16:29;61.83;;;29.10;;
27225;SDS011;14732;51.074;3.788;2023-02-15T17:18:58;56.00;;;28.60;;
27225;SDS011;14732;51.074;3.788;2023-02-15T17:21:35;53.78;;;29.50;;
27225;SDS011;14732;51.074;3.788;2023-02-15T17:24:06;54.50;;;29.40;;
27225;SDS011;14732;51.074;3.788;2023-02-15T17:26:48;52.15;;;29.60;;
27225;SDS011;14732;51.074;3.788;2023-02-15T17:31:53;56.90;;;30.17;;
27225;SDS011;14732;51.074;3.788;2023-02-15T17:37:10;57.08;;;30.15;;
27225;SDS011;14732;51.074;3.788;2023-02-15T17:39:38;57.20;;;28.85;;
27225;SDS011;14732;51.074;3.788;2023-02-15T17:42:05;57.80;;;29.23;;
27225;SDS011;14732;51.074;3.788;2023-02-15T17:44:31;50.90;;;28.35;;
27225;SDS011;14732;51.074;3.788;2023-02-15T17:46:57;53.95;;;29.17;;
27225;SDS011;14732;51.074;3.788;2023-02-15T17:49:24;56.15;;;30.13;;
27225;SDS011;14732;51.074;3.788;2023-02-15T17:51:53;54.97;;;28.65;;
27225;SDS011;14732;51.074;3.788;2023-02-15T17:54:19;58.90;;;29.55;;
27225;SDS011;14732;51.074;3.788;2023-02-15T17:57:05;49.65;;;27.95;;
27225;SDS011;14732;51.074;3.788;2023-02-15T17:59:36;51.17;;;27.88;;
27225;SDS011;14732;51.074;3.788;2023-02-15T18:02:21;56.65;;;28.95;;
27225;SDS011;14732;51.074;3.788;2023-02-15T18:05:07;49.17;;;27.75;;
27225;SDS011;14732;51.074;3.788;2023-02-15T18:07:56;55.53;;;29.35;;
27225;SDS011;14732;51.074;3.788;2023-02-15T18:10:41;55.33;;;28.65;;
27225;SDS011;14732;51.074;3.788;2023-02-15T18:13:25;54.78;;;30.20;;